Time,TemperatureF,DewpointF,PressureIn,WindDirection,WindDirectionDegrees,WindSpeedMPH,WindSpeedGustMPH,Humidity,HourlyPrecipIn,Conditions,Clouds,dailyrainin,SoftwareType,DateUTC
2013-08-12 00:00:00,70.9,68.0,30.02,ESE,123,0.0,-999.0,90,-99.99,,,0.00,weatherlink.com 1.10,2013-08-12 04:00:00,
2013-08-12 00:15:00,70.6,68.0,30.02,ESE,123,0.0,-999.0,90,-99.99,,,0.00,weatherlink.com 1.10,2013-08-12 04:15:00,
2013-08-12 00:30:00,70.8,68.0,30.02,ESE,123,0.0,-999.0,90,-99.99,,,0.00,weatherlink.com 1.10,2013-08-12 04:30:00,
2013-08-12 00:45:00,70.8,68.0,30.02,ESE,123,0.0,-999.0,90,-99.99,,,0.00,weatherlink.com 1.10,2013-08-12 04:45:00,
2013-08-12 01:00:00,70.3,68.0,30.02,ESE,123,0.0,-999.0,91,-99.99,,,0.00,weatherlink.com 1.10,2013-08-12 05:00:00,
2013-08-12 01:15:00,70.4,68.0,30.02,ESE,123,0.0,-999.0,91,-99.99,,,0.00,weatherlink.com 1.10,2013-08-12 05:15:00,
2013-08-12 01:30:00,70.3,68.0,30.02,ESE,123,0.0,-999.0,92,-99.99,,,0.00,weatherlink.com 1.10,2013-08-12 05:30:00,
2013-08-12 01:45:00,70.4,68.0,30.02,ESE,123,0.0,-999.0,92,-99.99,,,0.00,weatherlink.com 1.10,2013-08-12 05:45:00,
2013-08-12 02:00:00,70.4,68.0,30.02,ESE,122,0.0,-999.0,92,-99.99,,,0.00,weatherlink.com 1.10,2013-08-12 06:00:00,
2013-08-12 02:15:00,70.1,68.0,30.01,ESE,123,0.0,-999.0,92,-99.99,,,0.00,weatherlink.com 1.10,2013-08-12 06:15:00,
2013-08-12 02:30:00,70.1,68.0,30.01,ESE,122,0.0,-999.0,92,-99.99,,,0.00,weatherlink.com 1.10,2013-08-12 06:30:00,
2013-08-12 02:45:00,69.8,68.0,30.00,ESE,123,0.0,-999.0,93,-99.99,,,0.00,weatherlink.com 1.10,2013-08-12 06:45:00,
2013-08-12 03:00:00,69.6,68.0,30.00,ESE,122,0.0,-999.0,93,-99.99,,,0.00,weatherlink.com 1.10,2013-08-12 07:00:00,
2013-08-12 03:15:00,69.4,67.0,29.99,ESE,122,0.0,-999.0,93,-99.99,,,0.00,weatherlink.com 1.10,2013-08-12 07:15:00,
2013-08-12 03:30:00,69.3,67.0,29.99,ESE,123,0.0,-999.0,93,-99.99,,,0.00,weatherlink.com 1.10,2013-08-12 07:30:00,
2013-08-12 03:45:00,68.9,67.0,29.99,ESE,122,0.0,-999.0,94,-99.99,,,0.00,weatherlink.com 1.10,2013-08-12 07:45:00,
2013-08-12 04:00:00,68.9,67.0,29.99,ESE,123,0.0,-999.0,94,-99.99,,,0.00,weatherlink.com 1.10,2013-08-12 08:00:00,
2013-08-12 04:15:00,69.1,67.0,29.99,ESE,122,0.0,-999.0,94,-99.99,,,0.00,weatherlink.com 1.10,2013-08-12 08:15:00,
2013-08-12 04:30:00,69.8,68.0,29.99,ESE,123,0.0,-999.0,94,-99.99,,,0.00,weatherlink.com 1.10,2013-08-12 08:30:00,
2013-08-12 04:45:00,69.9,68.0,29.98,ESE,122,0.0,-999.0,94,-99.99,,,0.00,weatherlink.com 1.10,2013-08-12 08:45:00,
2013-08-12 05:00:00,69.6,68.0,29.98,ESE,122,0.0,-999.0,94,-99.99,,,0.00,weatherlink.com 1.10,2013-08-12 09:00:00,
2013-08-12 05:15:00,69.8,68.0,29.99,ESE,123,0.0,-999.0,94,-99.99,,,0.00,weatherlink.com 1.10,2013-08-12 09:15:00,
2013-08-12 05:30:00,69.6,68.0,29.99,ESE,123,0.0,-999.0,94,-99.99,,,0.00,weatherlink.com 1.10,2013-08-12 09:30:00,
2013-08-12 05:45:00,69.4,68.0,29.99,ESE,122,0.0,-999.0,94,-99.99,,,0.00,weatherlink.com 1.10,2013-08-12 09:45:00,
2013-08-12 06:00:00,69.1,67.0,29.99,ESE,123,0.0,-999.0,94,-99.99,,,0.00,weatherlink.com 1.10,2013-08-12 10:00:00,
2013-08-12 06:15:00,69.1,67.0,29.99,ESE,123,0.0,-999.0,94,-99.99,,,0.00,weatherlink.com 1.10,2013-08-12 10:15:00,
2013-08-12 06:30:00,68.9,67.0,29.99,ESE,122,0.0,-999.0,94,-99.99,,,0.00,weatherlink.com 1.10,2013-08-12 10:30:00,
2013-08-12 06:45:00,69.1,67.0,30.00,ESE,122,0.0,-999.0,94,-99.99,,,0.00,weatherlink.com 1.10,2013-08-12 10:45:00,
2013-08-12 07:00:00,69.6,68.0,30.00,ESE,123,0.0,-999.0,94,-99.99,,,0.00,weatherlink.com 1.10,2013-08-12 11:00:00,
2013-08-12 07:15:00,70.1,69.0,29.99,ESE,123,0.0,-999.0,95,-99.99,,,0.00,weatherlink.com 1.10,2013-08-12 11:15:00,
2013-08-12 07:30:00,71.1,69.0,30.00,ESE,123,0.0,-999.0,94,-99.99,,,0.00,weatherlink.com 1.10,2013-08-12 11:30:00,
2013-08-12 07:45:00,71.8,70.0,30.00,ESE,122,0.0,-999.0,93,-99.99,,,0.00,weatherlink.com 1.10,2013-08-12 11:45:00,
2013-08-12 08:00:00,72.7,70.0,30.00,ESE,122,0.0,-999.0,92,-99.99,,,0.00,weatherlink.com 1.10,2013-08-12 12:00:00,
2013-08-12 08:15:00,73.7,71.0,30.00,ESE,118,0.0,-999.0,90,-99.99,,,0.00,weatherlink.com 1.10,2013-08-12 12:15:00,
2013-08-12 08:30:00,74.7,71.0,30.00,ESE,118,0.0,-999.0,87,-99.99,,,0.00,weatherlink.com 1.10,2013-08-12 12:30:00,
2013-08-12 08:45:00,76.0,71.0,30.00,WNW,290,0.0,-999.0,84,-99.99,,,0.00,weatherlink.com 1.10,2013-08-12 12:45:00,
2013-08-12 09:00:00,77.2,71.0,30.00,WSW,242,1.0,-999.0,81,-99.99,,,0.00,weatherlink.com 1.10,2013-08-12 13:00:00,
2013-08-12 09:15:00,77.7,71.0,30.00,NW,322,0.0,-999.0,81,-99.99,,,0.00,weatherlink.com 1.10,2013-08-12 13:15:00,
2013-08-12 09:30:00,78.8,72.0,29.99,SW,215,1.0,-999.0,80,-99.99,,,0.00,weatherlink.com 1.10,2013-08-12 13:30:00,
2013-08-12 09:45:00,79.6,71.0,29.99,NW,319,0.0,-999.0,76,-99.99,,,0.00,weatherlink.com 1.10,2013-08-12 13:45:00,
2013-08-12 10:00:00,79.0,70.0,30.00,West,279,0.0,-999.0,75,-99.99,,,0.00,weatherlink.com 1.10,2013-08-12 14:00:00,
2013-08-12 10:15:00,81.1,72.0,30.00,WNW,296,2.0,-999.0,73,-99.99,,,0.00,weatherlink.com 1.10,2013-08-12 14:15:00,
2013-08-12 10:30:00,81.6,72.0,29.99,NNW,348,0.0,-999.0,73,-99.99,,,0.00,weatherlink.com 1.10,2013-08-12 14:30:00,
2013-08-12 10:45:00,81.1,72.0,29.99,East,86,0.0,-999.0,73,-99.99,,,0.00,weatherlink.com 1.10,2013-08-12 14:45:00,
2013-08-12 11:00:00,82.2,71.0,30.00,NNE,23,0.0,-999.0,69,-99.99,,,0.00,weatherlink.com 1.10,2013-08-12 15:00:00,
2013-08-12 11:15:00,81.1,70.0,30.00,NNE,23,1.0,-999.0,70,-99.99,,,0.00,weatherlink.com 1.10,2013-08-12 15:15:00,
2013-08-12 11:30:00,83.6,71.0,29.99,ESE,112,0.0,-999.0,66,-99.99,,,0.00,weatherlink.com 1.10,2013-08-12 15:30:00,
2013-08-12 11:46:00,85.5,74.0,30.00,ESE,105,1.0,-999.0,68,-99.99,,,0.00,weatherlink.com 1.10,2013-08-12 15:46:00,
2013-08-12 12:01:00,84.9,72.0,29.99,NE,53,2.0,-999.0,65,-99.99,,,0.00,weatherlink.com 1.10,2013-08-12 16:01:00,
2013-08-12 12:16:00,82.2,71.0,29.99,ESE,104,4.0,-999.0,69,-99.99,,,0.00,weatherlink.com 1.10,2013-08-12 16:16:00,
2013-08-12 12:31:00,86.1,73.0,29.98,SSE,152,3.0,-999.0,64,-99.99,,,0.00,weatherlink.com 1.10,2013-08-12 16:31:00,
2013-08-12 12:46:00,84.5,73.0,29.99,NNE,31,2.0,-999.0,69,-99.99,,,0.00,weatherlink.com 1.10,2013-08-12 16:46:00,
2013-08-12 13:01:00,83.8,72.0,29.99,SE,142,3.0,-999.0,67,-99.99,,,0.00,weatherlink.com 1.10,2013-08-12 17:01:00,
2013-08-12 16:36:00,86.5,72.0,29.94,ESE,104,0.0,-999.0,63,-99.99,,,0.00,weatherlink.com 1.10,2013-08-12 20:36:00,
2013-08-12 16:46:00,87.2,72.0,29.94,ESE,120,1.0,-999.0,61,-99.99,,,0.00,weatherlink.com 1.10,2013-08-12 20:46:00,
2013-08-12 17:01:00,86.5,71.0,29.94,ESE,115,0.0,-999.0,61,-99.99,,,0.00,weatherlink.com 1.10,2013-08-12 21:01:00,
2013-08-12 17:16:00,85.7,71.0,29.93,ESE,109,0.0,-999.0,61,-99.99,,,0.00,weatherlink.com 1.10,2013-08-12 21:16:00,
2013-08-12 17:31:00,84.3,70.0,29.94,ESE,109,0.0,-999.0,63,-99.99,,,0.00,weatherlink.com 1.10,2013-08-12 21:31:00,
2013-08-12 17:46:00,83.6,70.0,29.93,ESE,102,0.0,-999.0,64,-99.99,,,0.00,weatherlink.com 1.10,2013-08-12 21:46:00,
2013-08-12 18:01:00,83.2,71.0,29.93,ESE,102,0.0,-999.0,66,-99.99,,,0.00,weatherlink.com 1.10,2013-08-12 22:01:00,
2013-08-12 18:16:00,83.0,70.0,29.93,ESE,116,3.0,-999.0,65,-99.99,,,0.00,weatherlink.com 1.10,2013-08-12 22:16:00,
2013-08-12 18:31:00,82.8,70.0,29.93,ESE,112,1.0,-999.0,66,-99.99,,,0.00,weatherlink.com 1.10,2013-08-12 22:31:00,
2013-08-12 18:46:00,82.0,70.0,29.93,ESE,111,0.0,-999.0,68,-99.99,,,0.00,weatherlink.com 1.10,2013-08-12 22:46:00,
2013-08-12 19:01:00,81.4,70.0,29.93,ESE,111,0.0,-999.0,69,-99.99,,,0.00,weatherlink.com 1.10,2013-08-12 23:01:00,
2013-08-12 19:16:00,80.9,70.0,29.93,ESE,111,0.0,-999.0,69,-99.99,,,0.00,weatherlink.com 1.10,2013-08-12 23:16:00,
2013-08-12 19:31:00,79.9,71.0,29.92,ESE,111,0.0,-999.0,73,-99.99,,,0.00,weatherlink.com 1.10,2013-08-12 23:31:00,
2013-08-12 19:46:00,78.8,70.0,29.93,ESE,111,0.0,-999.0,74,-99.99,,,0.00,weatherlink.com 1.10,2013-08-12 23:46:00,
2013-08-12 20:01:00,77.9,70.0,29.93,ESE,111,0.0,-999.0,77,-99.99,,,0.00,weatherlink.com 1.10,2013-08-13 00:01:00,
2013-08-12 20:16:00,77.0,70.0,29.93,ESE,111,0.0,-999.0,78,-99.99,,,0.00,weatherlink.com 1.10,2013-08-13 00:16:00,
2013-08-12 20:31:00,76.3,70.0,29.93,ESE,111,0.0,-999.0,81,-99.99,,,0.00,weatherlink.com 1.10,2013-08-13 00:31:00,
2013-08-12 20:46:00,76.0,70.0,29.93,ESE,111,0.0,-999.0,82,-99.99,,,0.00,weatherlink.com 1.10,2013-08-13 00:46:00,
2013-08-12 21:01:00,75.3,70.0,29.93,ESE,111,0.0,-999.0,83,-99.99,,,0.00,weatherlink.com 1.10,2013-08-13 01:01:00,
2013-08-12 21:16:00,74.9,70.0,29.92,ESE,111,0.0,-999.0,84,-99.99,,,0.00,weatherlink.com 1.10,2013-08-13 01:16:00,
2013-08-12 21:31:00,74.6,70.0,29.93,ESE,111,0.0,-999.0,85,-99.99,,,0.00,weatherlink.com 1.10,2013-08-13 01:31:00,
2013-08-12 21:46:00,74.6,70.0,29.93,ESE,111,0.0,-999.0,86,-99.99,,,0.00,weatherlink.com 1.10,2013-08-13 01:46:00,
2013-08-12 22:01:00,74.2,70.0,29.93,ESE,111,0.0,-999.0,87,-99.99,,,0.00,weatherlink.com 1.10,2013-08-13 02:01:00,
2013-08-12 22:16:00,74.0,70.0,29.93,ESE,111,0.0,-999.0,88,-99.99,,,0.00,weatherlink.com 1.10,2013-08-13 02:16:00,
2013-08-12 22:31:00,74.2,71.0,29.93,ESE,111,0.0,-999.0,88,-99.99,,,0.00,weatherlink.com 1.10,2013-08-13 02:31:00,
2013-08-12 22:46:00,74.2,70.0,29.93,ESE,111,0.0,-999.0,87,-99.99,,,0.00,weatherlink.com 1.10,2013-08-13 02:46:00,
2013-08-12 23:01:00,74.2,71.0,29.92,ESE,111,0.0,-999.0,88,-99.99,,,0.00,weatherlink.com 1.10,2013-08-13 03:01:00,
2013-08-12 23:16:00,74.4,71.0,29.92,ESE,111,0.0,-999.0,88,-99.99,,,0.00,weatherlink.com 1.10,2013-08-13 03:16:00,
2013-08-12 23:31:00,74.2,71.0,29.92,ESE,111,0.0,-999.0,88,-99.99,,,0.00,weatherlink.com 1.10,2013-08-13 03:31:00,
2013-08-12 23:46:00,74.0,71.0,29.91,ESE,111,0.0,-999.0,89,-99.99,,,0.00,weatherlink.com 1.10,2013-08-13 03:46:00,